Time;durP1;ratioP1;P1;durP2;ratioP2;P2;SDS_P1;SDS_P2;PMS_P1;PMS_P2;Temp;Humidity;BMP_temperature;BMP_pressure;BME280_temperature;BME280_humidity;BME280_pressure;Samples;Min_cycle;Max_cycle;Signal;HPM_P1;HPM_P2
2024/03/09 00:00:06;;;;;;;17.07;11.17;;;3.10;99.90;;;;;;5083328;28;20668;-51
2024/03/09 00:02:33;;;;;;;18.43;11.00;;;3.10;99.90;;;;;;5087047;28;20218;-49
2024/03/09 00:05:05;;;;;;;19.10;11.27;;;3.00;99.90;;;;;;5086785;28;20197;-47
2024/03/09 00:07:32;;;;;;;16.60;10.30;;;3.00;99.90;;;;;;5077477;27;20190;-50
2024/03/09 00:09:59;;;;;;;17.33;11.37;;;3.00;99.90;;;;;;5090547;28;20198;-47
2024/03/09 00:12:26;;;;;;;18.97;11.10;;;3.00;99.90;;;;;;5068691;28;20218;-46
2024/03/09 00:14:53;;;;;;;15.67;10.60;;;3.10;99.90;;;;;;5086404;27;20204;-48
2024/03/09 00:17:21;;;;;;;15.10;10.20;;;3.10;99.90;;;;;;5100283;28;20202;-47
2024/03/09 00:19:48;;;;;;;18.77;10.87;;;3.10;99.90;;;;;;5098710;28;20194;-48
2024/03/09 00:22:17;;;;;;;17.53;10.97;;;3.10;99.90;;;;;;5095008;28;20217;-46
2024/03/09 00:24:45;;;;;;;19.53;11.13;;;3.10;99.90;;;;;;5094767;28;20190;-46
2024/03/09 00:27:14;;;;;;;19.60;11.40;;;3.10;99.90;;;;;;5068492;27;20197;-47
2024/03/09 00:29:41;;;;;;;17.73;11.30;;;3.00;99.90;;;;;;5092841;28;20618;-46
2024/03/09 00:32:08;;;;;;;17.73;10.90;;;3.00;99.90;;;;;;5085590;28;20221;-49
2024/03/09 00:34:35;;;;;;;18.33;11.20;;;3.00;99.90;;;;;;5104057;28;20608;-51
2024/03/09 00:37:02;;;;;;;15.23;10.50;;;3.00;99.90;;;;;;5100140;28;20205;-48
2024/03/09 00:39:30;;;;;;;22.23;11.37;;;3.00;99.90;;;;;;5102789;28;20197;-46
2024/03/09 00:41:57;;;;;;;15.50;10.43;;;3.10;99.90;;;;;;5076568;28;20217;-48
2024/03/09 00:44:24;;;;;;;17.17;11.00;;;3.10;99.90;;;;;;5095469;28;20213;-49
2024/03/09 00:46:51;;;;;;;19.97;11.60;;;3.10;99.90;;;;;;5091378;27;20279;-47
2024/03/09 00:49:18;;;;;;;19.80;11.83;;;3.10;99.90;;;;;;5094821;28;20287;-46
2024/03/09 00:51:46;;;;;;;18.90;11.00;;;3.10;99.90;;;;;;5103396;28;20217;-46
2024/03/09 00:54:13;;;;;;;16.97;11.27;;;3.10;99.90;;;;;;5092590;28;20847;-47
2024/03/09 00:56:41;;;;;;;20.07;11.97;;;3.10;99.90;;;;;;5101893;28;20189;-50
2024/03/09 00:59:08;;;;;;;19.57;11.13;;;3.10;99.90;;;;;;5072307;28;20878;-48
2024/03/09 01:01:34;;;;;;;17.10;11.03;;;3.10;99.90;;;;;;5096928;28;20212;-49
2024/03/09 01:04:02;;;;;;;16.53;10.33;;;3.10;99.90;;;;;;5093521;27;20198;-48
2024/03/09 01:06:28;;;;;;;18.33;11.03;;;3.10;99.90;;;;;;5102184;28;20189;-48
2024/03/09 01:08:56;;;;;;;21.37;11.63;;;3.10;99.90;;;;;;5092020;28;20204;-48
2024/03/09 01:11:23;;;;;;;19.17;10.90;;;3.10;99.90;;;;;;5091523;28;20229;-48
2024/03/09 01:13:51;;;;;;;17.77;11.20;;;3.10;99.90;;;;;;5070194;28;20271;-46
2024/03/09 01:16:18;;;;;;;18.30;10.87;;;3.10;99.90;;;;;;5090204;28;20210;-46
2024/03/09 01:18:45;;;;;;;16.43;10.83;;;3.10;99.90;;;;;;5091526;27;20251;-47
2024/03/09 01:21:12;;;;;;;21.50;11.73;;;3.00;99.90;;;;;;5093295;28;21046;-49
2024/03/09 01:23:39;;;;;;;18.33;11.00;;;3.10;99.90;;;;;;5093138;28;20695;-47
2024/03/09 01:26:05;;;;;;;17.10;10.33;;;3.00;99.90;;;;;;5092223;28;20263;-46
2024/03/09 01:28:32;;;;;;;18.63;11.43;;;3.00;99.90;;;;;;5072213;28;20201;-49
2024/03/09 01:31:00;;;;;;;17.40;11.03;;;3.10;99.90;;;;;;5088848;28;20237;-48
2024/03/09 01:33:27;;;;;;;20.77;11.40;;;3.00;99.90;;;;;;5092839;28;20621;-51
2024/03/09 01:35:54;;;;;;;17.47;10.77;;;3.00;99.90;;;;;;5090043;28;20197;-48
2024/03/09 01:38:22;;;;;;;17.63;11.67;;;3.00;99.90;;;;;;5088548;28;20189;-50
2024/03/09 01:40:49;;;;;;;19.13;11.03;;;3.00;99.90;;;;;;5088853;28;20403;-47
2024/03/09 01:43:16;;;;;;;17.77;10.87;;;3.00;99.90;;;;;;5058517;28;22153;-51
2024/03/09 01:45:45;;;;;;;17.07;10.23;;;3.00;99.90;;;;;;5093673;28;20228;-51
2024/03/09 01:48:13;;;;;;;18.73;11.23;;;2.90;99.90;;;;;;5081996;28;20200;-49
2024/03/09 01:50:41;;;;;;;17.63;11.17;;;2.90;99.90;;;;;;5093587;28;20250;-47
2024/03/09 01:53:08;;;;;;;18.00;11.33;;;2.90;99.90;;;;;;5088198;28;20198;-49
2024/03/09 01:55:38;;;;;;;17.40;11.07;;;2.90;99.90;;;;;;5092725;28;20204;-47
2024/03/09 01:58:06;;;;;;;19.20;11.83;;;2.90;99.90;;;;;;5063852;28;20602;-48
2024/03/09 02:00:34;;;;;;;21.17;11.43;;;2.90;99.90;;;;;;5093344;28;20198;-46
2024/03/09 02:03:08;;;;;;;18.30;11.33;;;2.90;99.90;;;;;;5080365;28;20213;-46
2024/03/09 02:05:36;;;;;;;19.93;11.47;;;2.90;99.90;;;;;;5093271;28;20190;-47
2024/03/09 02:08:05;;;;;;;22.63;12.47;;;2.80;99.90;;;;;;5090576;28;20189;-49
2024/03/09 02:10:32;;;;;;;20.77;11.87;;;2.80;99.90;;;;;;5087318;28;20197;-50
2024/03/09 02:12:59;;;;;;;19.33;11.90;;;2.80;99.90;;;;;;5074607;28;20317;-52
2024/03/09 02:15:29;;;;;;;20.17;11.93;;;2.80;99.90;;;;;;5059156;28;20210;-48
2024/03/09 02:17:56;;;;;;;18.10;11.23;;;2.80;99.90;;;;;;5090804;27;20284;-46
2024/03/09 02:20:25;;;;;;;20.70;11.97;;;2.80;99.90;;;;;;5083735;27;20218;-47
2024/03/09 02:22:55;;;;;;;20.77;11.60;;;2.80;99.90;;;;;;5093623;28;20217;-49
2024/03/09 02:25:24;;;;;;;21.50;12.50;;;2.80;99.90;;;;;;5091056;28;20189;-47
2024/03/09 02:27:52;;;;;;;19.70;12.43;;;2.80;99.90;;;;;;5094455;28;20668;-48
2024/03/09 02:30:19;;;;;;;18.23;11.33;;;2.80;99.90;;;;;;5061734;28;20202;-48
2024/03/09 02:32:46;;;;;;;20.40;11.63;;;2.80;99.90;;;;;;5080726;28;20234;-46
2024/03/09 02:35:13;;;;;;;18.87;12.27;;;2.80;99.90;;;;;;5079525;27;20205;-50
2024/03/09 02:37:40;;;;;;;19.20;11.17;;;2.70;99.90;;;;;;5083565;28;20182;-50
2024/03/09 02:40:11;;;;;;;19.80;12.03;;;2.70;99.90;;;;;;5086796;28;20612;-49
2024/03/09 02:43:03;;;;;;;18.97;12.13;;;2.70;99.90;;;;;;5081879;28;20904;-49
2024/03/09 02:45:28;;;;;;;19.90;12.37;;;2.70;99.90;;;;;;5054804;28;20314;-51
2024/03/09 02:47:55;;;;;;;19.30;11.53;;;2.60;99.90;;;;;;5081042;28;20200;-48
2024/03/09 02:50:24;;;;;;;17.47;10.97;;;2.60;99.90;;;;;;5077054;28;20550;-51
2024/03/09 02:52:51;;;;;;;21.13;13.13;;;2.60;99.90;;;;;;5088257;28;20306;-47
2024/03/09 02:55:18;;;;;;;22.33;13.30;;;2.60;99.90;;;;;;5088798;28;20557;-50
2024/03/09 02:57:47;;;;;;;22.77;13.10;;;2.60;99.90;;;;;;5084055;28;20257;-47
2024/03/09 03:00:14;;;;;;;22.40;13.47;;;2.60;99.90;;;;;;5080762;28;20186;-46
2024/03/09 03:05:26;;;;;;;21.23;12.97;;;2.60;99.90;;;;;;5069477;27;20265;-47
2024/03/09 03:07:53;;;;;;;24.07;13.17;;;2.60;99.90;;;;;;5085038;28;20251;-47
2024/03/09 03:10:20;;;;;;;22.67;12.60;;;2.60;99.90;;;;;;5084204;28;20773;-48
2024/03/09 03:12:48;;;;;;;19.70;12.87;;;2.50;99.90;;;;;;5080746;28;21095;-49
2024/03/09 03:15:15;;;;;;;17.33;12.13;;;2.60;99.90;;;;;;5079053;28;20198;-49
2024/03/09 03:17:44;;;;;;;22.20;13.10;;;2.50;99.90;;;;;;5075843;28;20284;-47
2024/03/09 03:20:13;;;;;;;18.70;12.50;;;2.50;99.90;;;;;;5085103;28;20251;-46
2024/03/09 03:22:40;;;;;;;21.60;12.83;;;2.50;99.90;;;;;;5075948;28;20222;-49
2024/03/09 03:25:10;;;;;;;23.50;13.80;;;2.50;99.90;;;;;;5092381;28;20185;-48
2024/03/09 03:27:36;;;;;;;22.20;13.10;;;2.50;99.90;;;;;;5091849;28;20377;-47
2024/03/09 03:30:06;;;;;;;18.33;12.07;;;2.40;99.90;;;;;;5096156;28;20734;-49
2024/03/09 03:32:33;;;;;;;22.80;12.90;;;2.40;99.90;;;;;;5063788;28;20282;-47
2024/03/09 03:35:00;;;;;;;20.77;12.20;;;2.40;99.90;;;;;;5090366;27;20560;-50
2024/03/09 03:37:27;;;;;;;19.67;12.23;;;2.40;99.90;;;;;;5083302;27;20204;-46
2024/03/09 03:39:57;;;;;;;24.90;12.87;;;2.30;99.90;;;;;;5090195;28;20285;-46
2024/03/09 03:42:26;;;;;;;22.47;12.97;;;2.30;99.90;;;;;;5087582;28;20220;-46
2024/03/09 03:44:52;;;;;;;23.23;12.73;;;2.30;99.90;;;;;;5087903;28;21081;-49
2024/03/09 03:47:22;;;;;;;20.63;12.23;;;2.30;99.90;;;;;;5061049;28;20612;-47
2024/03/09 03:49:48;;;;;;;21.10;13.17;;;2.30;99.90;;;;;;5085634;28;20709;-48
2024/03/09 03:52:16;;;;;;;21.10;12.60;;;2.40;99.90;;;;;;5080324;27;20282;-47
2024/03/09 03:54:42;;;;;;;24.10;12.93;;;2.40;99.90;;;;;;5089271;28;20208;-48
2024/03/09 03:57:12;;;;;;;20.53;12.93;;;2.40;99.90;;;;;;5090645;28;20254;-47
2024/03/09 03:59:38;;;;;;;18.53;10.97;;;2.30;99.90;;;;;;5093832;28;20284;-47
2024/03/09 04:02:07;;;;;;;19.50;13.03;;;2.30;99.90;;;;;;5088902;28;20688;-49
2024/03/09 04:04:36;;;;;;;22.53;13.50;;;2.30;99.90;;;;;;5057546;28;20205;-47
2024/03/09 04:07:04;;;;;;;28.37;13.40;;;2.30;99.90;;;;;;5081976;27;20209;-49
2024/03/09 04:09:31;;;;;;;23.97;12.53;;;2.30;99.90;;;;;;5085406;28;20202;-50
2024/03/09 04:12:00;;;;;;;21.80;13.53;;;2.30;99.90;;;;;;5087036;28;20228;-48
2024/03/09 04:14:27;;;;;;;22.73;13.43;;;2.30;99.90;;;;;;5087339;28;20214;-47
2024/03/09 04:16:54;;;;;;;23.37;13.83;;;2.30;99.90;;;;;;5097688;28;20210;-50
2024/03/09 04:19:21;;;;;;;24.37;13.57;;;2.30;99.90;;;;;;5055043;27;20210;-48
2024/03/09 04:21:49;;;;;;;24.70;12.90;;;2.30;99.90;;;;;;5085996;27;21256;-47
2024/03/09 04:24:17;;;;;;;25.47;13.40;;;2.30;99.90;;;;;;5088919;28;20214;-48
2024/03/09 04:26:43;;;;;;;21.13;13.40;;;2.30;99.90;;;;;;5092891;28;20217;-46
2024/03/09 04:29:11;;;;;;;21.00;12.60;;;2.20;99.90;;;;;;5092616;28;20205;-48
2024/03/09 04:31:38;;;;;;;21.80;13.07;;;2.20;99.90;;;;;;5089155;28;20298;-48
2024/03/09 04:34:10;;;;;;;19.47;12.77;;;2.20;99.90;;;;;;5095364;28;20725;-46
2024/03/09 04:36:38;;;;;;;27.97;14.63;;;2.20;99.90;;;;;;5058025;27;20201;-48
2024/03/09 04:39:09;;;;;;;25.07;14.33;;;2.10;99.90;;;;;;5089770;28;20202;-46
2024/03/09 04:41:37;;;;;;;23.43;14.00;;;2.10;99.90;;;;;;5081000;27;20221;-48
2024/03/09 04:44:04;;;;;;;20.77;13.30;;;2.00;99.90;;;;;;5088293;28;20319;-48
2024/03/09 04:46:32;;;;;;;21.80;13.50;;;2.00;99.90;;;;;;5085099;28;20648;-48
2024/03/09 04:48:59;;;;;;;22.37;13.93;;;2.00;99.90;;;;;;5089465;28;20194;-49
2024/03/09 04:51:26;;;;;;;23.30;13.87;;;1.90;99.90;;;;;;5064974;28;20289;-50
2024/03/09 04:53:53;;;;;;;24.00;13.63;;;1.90;99.90;;;;;;5080084;27;20821;-49
2024/03/09 04:56:22;;;;;;;25.07;13.63;;;1.90;99.90;;;;;;5085210;28;20299;-48
2024/03/09 04:58:49;;;;;;;22.80;14.13;;;1.90;99.90;;;;;;5089685;28;20964;-49
2024/03/09 05:01:16;;;;;;;22.83;14.57;;;1.80;99.90;;;;;;5077563;28;20240;-48
2024/03/09 05:03:43;;;;;;;23.63;13.97;;;1.80;99.90;;;;;;5081536;28;20284;-48
2024/03/09 05:06:10;;;;;;;26.53;14.00;;;1.80;99.90;;;;;;5087084;28;20615;-47
2024/03/09 05:08:37;;;;;;;25.13;14.43;;;1.70;99.90;;;;;;5060759;28;20210;-49
2024/03/09 05:11:05;;;;;;;24.13;15.10;;;1.70;99.90;;;;;;5100657;28;20691;-49
2024/03/09 05:13:34;;;;;;;24.67;14.17;;;1.70;99.90;;;;;;5087332;27;20692;-48
2024/03/09 05:16:01;;;;;;;22.60;13.83;;;1.70;99.90;;;;;;5099681;27;20220;-47
2024/03/09 05:18:30;;;;;;;21.93;14.47;;;1.60;99.90;;;;;;5099668;27;20212;-46
2024/03/09 05:20:57;;;;;;;20.23;12.83;;;1.60;99.90;;;;;;5096373;28;20213;-49
2024/03/09 05:23:24;;;;;;;22.53;15.00;;;1.60;99.90;;;;;;5068000;28;20584;-46
2024/03/09 05:25:51;;;;;;;25.10;14.67;;;1.60;99.90;;;;;;5084280;27;20207;-49
2024/03/09 05:28:20;;;;;;;26.10;13.90;;;1.50;99.90;;;;;;5088922;28;20202;-47
2024/03/09 05:30:48;;;;;;;21.83;14.13;;;1.50;99.90;;;;;;5085363;28;20282;-46
2024/03/09 05:33:15;;;;;;;24.37;13.80;;;1.50;99.90;;;;;;5097187;28;20399;-46
2024/03/09 05:35:42;;;;;;;27.93;15.20;;;1.50;99.90;;;;;;5091332;28;20198;-45
2024/03/09 05:38:09;;;;;;;27.80;14.80;;;1.40;99.90;;;;;;5066749;28;21005;-49
2024/03/09 05:40:36;;;;;;;23.23;14.00;;;1.40;99.90;;;;;;5082165;27;20656;-48
2024/03/09 05:43:06;;;;;;;25.33;14.00;;;1.40;99.90;;;;;;5092441;28;20310;-49
2024/03/09 05:45:36;;;;;;;22.93;13.90;;;1.40;99.90;;;;;;5090448;28;20261;-46
2024/03/09 05:48:05;;;;;;;27.30;13.83;;;1.40;99.90;;;;;;5090092;28;20479;-47
2024/03/09 05:50:32;;;;;;;25.67;14.90;;;1.40;99.90;;;;;;5090585;28;20272;-49
2024/03/09 05:53:00;;;;;;;23.37;14.87;;;1.40;99.90;;;;;;5062483;28;21661;-46
2024/03/09 05:55:27;;;;;;;28.30;15.07;;;1.30;99.90;;;;;;5084160;28;20201;-46
2024/03/09 05:57:57;;;;;;;22.10;13.60;;;1.30;99.90;;;;;;5083109;28;20186;-47
2024/03/09 06:00:27;;;;;;;28.73;15.60;;;1.30;99.90;;;;;;5088477;28;20238;-48
2024/03/09 06:02:54;;;;;;;23.80;14.00;;;1.30;99.90;;;;;;5076851;27;20212;-47
2024/03/09 06:05:28;;;;;;;25.17;15.13;;;1.30;99.90;;;;;;5086169;28;20201;-48
2024/03/09 06:07:55;;;;;;;27.50;16.63;;;1.30;99.90;;;;;;5081210;28;20201;-47
2024/03/09 06:10:24;;;;;;;26.33;15.50;;;1.30;99.90;;;;;;5061521;27;20208;-49
2024/03/09 06:12:52;;;;;;;24.30;14.40;;;1.30;99.90;;;;;;5084192;28;20319;-47
2024/03/09 06:15:21;;;;;;;28.33;14.87;;;1.30;99.90;;;;;;5085102;27;20203;-47
2024/03/09 06:17:48;;;;;;;24.60;15.03;;;1.30;99.90;;;;;;5085117;28;20276;-48
2024/03/09 06:20:17;;;;;;;28.57;15.50;;;1.30;99.90;;;;;;5086778;28;20196;-51
2024/03/09 06:22:46;;;;;;;29.67;15.83;;;1.30;99.90;;;;;;5085106;28;20221;-47
2024/03/09 06:25:22;;;;;;;33.17;15.30;;;1.30;99.90;;;;;;5062671;27;20221;-50
2024/03/09 06:27:49;;;;;;;28.13;15.23;;;1.30;99.90;;;;;;5085328;28;20278;-46
2024/03/09 06:30:16;;;;;;;30.37;16.17;;;1.40;99.90;;;;;;5081308;27;20203;-47
2024/03/09 06:32:43;;;;;;;28.20;16.07;;;1.40;99.90;;;;;;5080857;28;20220;-49
2024/03/09 06:35:10;;;;;;;23.80;15.53;;;1.40;99.90;;;;;;5092425;28;20199;-46
2024/03/09 06:37:38;;;;;;;26.93;15.77;;;1.40;99.90;;;;;;5081809;27;20223;-50
2024/03/09 06:40:08;;;;;;;26.97;15.77;;;1.40;99.90;;;;;;5060288;27;20329;-48
2024/03/09 06:42:35;;;;;;;28.27;16.60;;;1.50;99.90;;;;;;5090331;28;20316;-47
2024/03/09 06:45:03;;;;;;;28.13;16.53;;;1.50;99.90;;;;;;5087466;27;20282;-47
2024/03/09 06:47:32;;;;;;;26.50;15.13;;;1.60;99.90;;;;;;5087429;28;20194;-46
2024/03/09 06:50:00;;;;;;;25.67;15.73;;;1.60;99.90;;;;;;5089254;28;20217;-47
2024/03/09 06:52:27;;;;;;;30.33;17.07;;;1.60;99.90;;;;;;5090560;28;20228;-47
2024/03/09 06:54:55;;;;;;;30.83;16.97;;;1.60;99.90;;;;;;5060742;28;20306;-50
2024/03/09 06:57:23;;;;;;;27.67;16.23;;;1.70;99.90;;;;;;5093227;27;20208;-45
2024/03/09 06:59:50;;;;;;;29.00;16.83;;;1.80;99.90;;;;;;5078502;28;23981;-50
2024/03/09 07:02:17;;;;;;;28.47;17.23;;;1.80;99.90;;;;;;5088949;27;20220;-47
2024/03/09 07:04:48;;;;;;;28.77;16.73;;;1.80;99.90;;;;;;5083043;28;20215;-46
2024/03/09 07:07:14;;;;;;;31.73;17.00;;;1.90;99.90;;;;;;5085919;28;20201;-46
2024/03/09 07:09:43;;;;;;;29.20;16.43;;;2.00;99.90;;;;;;5050932;27;20575;-47
2024/03/09 07:12:09;;;;;;;26.10;16.20;;;2.00;99.90;;;;;;5079156;28;20591;-45
2024/03/09 07:14:38;;;;;;;32.33;15.93;;;2.10;99.90;;;;;;5076849;28;20202;-47
2024/03/09 07:17:05;;;;;;;29.20;16.90;;;2.20;99.90;;;;;;5074909;28;20216;-47
2024/03/09 07:19:34;;;;;;;30.80;17.00;;;2.30;99.90;;;;;;5086285;28;20288;-46
2024/03/09 07:22:01;;;;;;;29.93;16.53;;;2.30;99.90;;;;;;5086151;28;20282;-47
2024/03/09 07:24:29;;;;;;;27.60;17.07;;;2.40;99.90;;;;;;5080447;28;20241;-51
2024/03/09 07:26:56;;;;;;;27.50;16.43;;;2.50;99.90;;;;;;5058261;28;20204;-49
2024/03/09 07:29:23;;;;;;;30.90;17.80;;;2.60;99.90;;;;;;5079368;28;20250;-47
2024/03/09 07:31:51;;;;;;;28.70;17.83;;;2.70;99.90;;;;;;5086666;28;20222;-47
2024/03/09 07:34:17;;;;;;;31.17;16.87;;;2.80;99.90;;;;;;5082425;28;20194;-46
2024/03/09 07:36:44;;;;;;;30.63;16.83;;;2.90;99.90;;;;;;5088561;28;20304;-46
2024/03/09 07:39:15;;;;;;;28.63;15.83;;;3.00;99.90;;;;;;5091036;28;20269;-47
2024/03/09 07:41:42;;;;;;;28.17;17.33;;;3.10;99.90;;;;;;5056416;28;20229;-49
2024/03/09 07:44:09;;;;;;;29.20;16.47;;;3.20;99.90;;;;;;5071063;28;20300;-48
2024/03/09 07:46:36;;;;;;;30.37;17.10;;;3.30;99.90;;;;;;5080682;28;20205;-48
2024/03/09 07:49:04;;;;;;;27.83;16.70;;;3.40;99.90;;;;;;5076361;28;20730;-46
2024/03/09 07:51:31;;;;;;;31.73;17.30;;;3.50;99.90;;;;;;5090018;28;20229;-46
2024/03/09 07:53:58;;;;;;;29.17;17.03;;;3.60;99.90;;;;;;5086809;28;20221;-49
2024/03/09 07:56:25;;;;;;;26.37;16.77;;;3.80;99.90;;;;;;5084875;28;20209;-48
2024/03/09 07:58:52;;;;;;;32.13;16.50;;;3.80;99.90;;;;;;5056824;28;20206;-51
2024/03/09 08:01:19;;;;;;;25.20;16.40;;;4.00;99.90;;;;;;5082992;28;20209;-48
2024/03/09 08:03:46;;;;;;;27.30;16.23;;;4.10;99.90;;;;;;5070004;28;20220;-47
2024/03/09 08:06:14;;;;;;;27.07;15.03;;;4.20;99.90;;;;;;5092427;28;20193;-46
2024/03/09 08:08:43;;;;;;;25.30;16.07;;;4.30;99.90;;;;;;5088547;28;21336;-47
2024/03/09 08:11:10;;;;;;;32.33;16.73;;;4.40;99.90;;;;;;5088406;28;20765;-47
2024/03/09 08:13:37;;;;;;;27.50;16.07;;;4.50;99.90;;;;;;5057029;28;20206;-47
2024/03/09 08:16:04;;;;;;;26.87;16.30;;;4.60;99.90;;;;;;5080528;28;20198;-46
2024/03/09 08:18:32;;;;;;;29.87;17.00;;;4.70;99.90;;;;;;5079270;28;20189;-48
2024/03/09 08:21:00;;;;;;;28.37;16.17;;;4.80;99.90;;;;;;5082980;28;20225;-47
2024/03/09 08:23:28;;;;;;;28.53;15.47;;;4.90;99.90;;;;;;5086772;28;20193;-48
2024/03/09 08:25:55;;;;;;;23.17;14.43;;;5.00;99.90;;;;;;5093008;28;20250;-47
2024/03/09 08:28:22;;;;;;;26.73;15.47;;;5.10;99.90;;;;;;5066745;27;20277;-47
2024/03/09 08:30:50;;;;;;;23.80;15.23;;;5.10;99.90;;;;;;5081979;27;20233;-49
2024/03/09 08:33:17;;;;;;;25.70;15.57;;;5.20;99.90;;;;;;5084195;27;20232;-47
2024/03/09 08:35:45;;;;;;;23.00;15.53;;;5.30;99.90;;;;;;5091395;28;20204;-47
2024/03/09 08:38:13;;;;;;;25.23;15.23;;;5.30;99.90;;;;;;5084789;27;20201;-50
2024/03/09 08:40:41;;;;;;;22.10;15.13;;;5.40;99.90;;;;;;5089368;27;20246;-47
2024/03/09 08:43:08;;;;;;;26.53;16.37;;;5.50;99.90;;;;;;5087327;28;20201;-49
2024/03/09 08:45:35;;;;;;;30.80;16.37;;;5.60;99.90;;;;;;5059708;28;20217;-48
2024/03/09 08:48:03;;;;;;;27.77;15.43;;;5.70;99.90;;;;;;5091735;27;20502;-48
2024/03/09 08:50:30;;;;;;;22.97;15.03;;;5.80;99.90;;;;;;5082749;27;20651;-48
2024/03/09 08:52:59;;;;;;;25.37;15.37;;;5.90;99.90;;;;;;5085598;27;20194;-48
2024/03/09 08:55:26;;;;;;;27.67;16.20;;;5.90;99.90;;;;;;5085827;27;20193;-49
2024/03/09 08:57:54;;;;;;;26.13;15.93;;;6.00;99.90;;;;;;5087701;28;20198;-47
2024/03/09 09:00:24;;;;;;;30.17;17.10;;;6.00;99.90;;;;;;5032227;27;20581;-47
2024/03/09 09:02:53;;;;;;;26.70;15.33;;;6.10;99.90;;;;;;5029558;28;20233;-50
2024/03/09 09:05:21;;;;;;;26.03;16.10;;;6.20;99.90;;;;;;5058932;28;20286;-48
2024/03/09 09:07:48;;;;;;;26.00;15.53;;;6.30;99.90;;;;;;5073113;28;20202;-47
2024/03/09 09:10:16;;;;;;;30.87;17.23;;;6.40;99.90;;;;;;5081938;28;20656;-46
2024/03/09 09:12:44;;;;;;;26.23;16.30;;;6.40;99.90;;;;;;5080607;28;20236;-49
2024/03/09 09:15:14;;;;;;;28.03;15.57;;;6.60;99.90;;;;;;5060115;28;20193;-50
2024/03/09 09:17:41;;;;;;;24.63;16.03;;;6.70;99.90;;;;;;5087857;28;20208;-48
2024/03/09 09:20:11;;;;;;;26.57;16.47;;;6.70;99.90;;;;;;5076922;28;20192;-48
2024/03/09 09:22:38;;;;;;;22.73;15.40;;;6.80;99.90;;;;;;5086366;28;20233;-51
2024/03/09 09:25:06;;;;;;;24.90;15.27;;;6.80;99.90;;;;;;5092348;28;20643;-48
2024/03/09 09:27:34;;;;;;;23.70;14.70;;;6.90;99.90;;;;;;5087283;28;20917;-52
2024/03/09 09:30:02;;;;;;;22.77;15.30;;;7.00;99.90;;;;;;5074257;28;20247;-50
2024/03/09 09:32:30;;;;;;;29.30;16.13;;;7.10;99.90;;;;;;5060201;28;20225;-48
2024/03/09 09:34:57;;;;;;;24.73;15.30;;;7.10;99.90;;;;;;5087822;28;20201;-50
2024/03/09 09:37:24;;;;;;;22.77;13.97;;;7.10;99.90;;;;;;5084448;28;20202;-47
2024/03/09 09:39:51;;;;;;;20.93;13.40;;;7.20;99.90;;;;;;5085736;28;20672;-45
2024/03/09 09:42:19;;;;;;;24.97;14.90;;;7.20;99.90;;;;;;5076330;28;21025;-48
2024/03/09 09:44:46;;;;;;;23.13;16.07;;;7.20;99.90;;;;;;5090682;28;20229;-45
2024/03/09 09:47:14;;;;;;;24.77;16.33;;;7.30;99.90;;;;;;5051775;28;20899;-46
2024/03/09 09:49:44;;;;;;;22.30;14.83;;;7.20;99.90;;;;;;5067298;28;20263;-53
2024/03/09 09:52:12;;;;;;;24.60;15.83;;;7.30;99.90;;;;;;5087350;28;20262;-47
2024/03/09 09:54:41;;;;;;;26.73;15.13;;;7.40;99.90;;;;;;5081739;28;20689;-52
2024/03/09 09:57:10;;;;;;;23.00;14.57;;;7.40;99.90;;;;;;5084105;28;20700;-47
2024/03/09 09:59:37;;;;;;;22.30;13.97;;;7.50;99.90;;;;;;5093108;28;20649;-51
2024/03/09 10:02:04;;;;;;;22.27;15.37;;;7.60;99.90;;;;;;5055451;28;20230;-45
2024/03/09 10:04:32;;;;;;;23.23;14.23;;;7.60;99.90;;;;;;5077474;28;20771;-48
2024/03/09 10:07:09;;;;;;;22.77;15.40;;;7.70;99.90;;;;;;5079714;28;20305;-45
2024/03/09 10:09:35;;;;;;;23.63;14.57;;;7.80;99.90;;;;;;5080791;28;20213;-49
2024/03/09 10:12:03;;;;;;;22.07;14.03;;;7.80;99.90;;;;;;5086065;28;20897;-48
2024/03/09 10:14:31;;;;;;;23.10;14.93;;;7.90;99.90;;;;;;5095480;28;20655;-50
2024/03/09 10:17:02;;;;;;;22.20;15.07;;;7.90;99.90;;;;;;5087529;28;21292;-47
2024/03/09 10:19:29;;;;;;;22.00;13.80;;;8.00;99.90;;;;;;5049069;28;20209;-50
2024/03/09 10:21:57;;;;;;;21.47;13.83;;;8.00;99.90;;;;;;5086173;28;20228;-48
2024/03/09 10:24:26;;;;;;;19.93;13.33;;;8.10;99.90;;;;;;5081920;28;20699;-45
2024/03/09 10:26:54;;;;;;;18.80;13.67;;;8.10;99.90;;;;;;5085170;28;20234;-49
2024/03/09 10:29:22;;;;;;;18.43;13.80;;;8.10;99.90;;;;;;5096476;28;20279;-45
2024/03/09 10:31:50;;;;;;;18.37;12.80;;;8.10;99.90;;;;;;5082116;28;20243;-47
2024/03/09 10:34:17;;;;;;;19.47;12.53;;;8.20;99.90;;;;;;5071020;28;20223;-48
2024/03/09 10:36:44;;;;;;;24.23;13.90;;;8.20;99.90;;;;;;5069159;28;20202;-51
2024/03/09 10:39:19;;;;;;;21.37;13.53;;;8.30;99.90;;;;;;5075705;28;20569;-45
2024/03/09 10:41:50;;;;;;;19.03;13.17;;;8.30;99.90;;;;;;5080873;28;20278;-45
2024/03/09 10:44:17;;;;;;;17.83;12.27;;;8.40;99.90;;;;;;5091370;28;20221;-47
2024/03/09 10:46:48;;;;;;;18.47;12.50;;;8.40;99.90;;;;;;5089462;28;20262;-46
2024/03/09 10:49:21;;;;;;;19.87;13.27;;;8.50;99.90;;;;;;5082625;28;20226;-46
2024/03/09 10:51:52;;;;;;;16.07;11.70;;;8.50;99.90;;;;;;5034719;28;22909;-45
2024/03/09 10:54:30;;;;;;;16.87;12.40;;;8.50;99.90;;;;;;5092894;28;20190;-46
2024/03/09 10:57:02;;;;;;;20.03;12.17;;;8.50;99.90;;;;;;5085751;28;20569;-50
2024/03/09 10:59:30;;;;;;;18.27;12.90;;;8.50;99.90;;;;;;5087261;28;20226;-49
2024/03/09 11:02:00;;;;;;;20.67;13.00;;;8.50;99.90;;;;;;5097597;28;20225;-47
2024/03/09 11:04:28;;;;;;;22.03;13.37;;;8.60;99.90;;;;;;5082440;28;20835;-48
2024/03/09 11:06:56;;;;;;;18.67;12.90;;;8.50;99.90;;;;;;5042311;28;20206;-48
2024/03/09 11:09:29;;;;;;;22.27;13.50;;;8.50;99.90;;;;;;5078657;28;20190;-50
2024/03/09 11:11:59;;;;;;;20.77;13.03;;;8.50;99.90;;;;;;5084378;28;20224;-48
2024/03/09 11:14:27;;;;;;;21.67;13.40;;;8.50;99.90;;;;;;5068766;28;20198;-48
2024/03/09 11:16:55;;;;;;;17.67;13.03;;;8.60;99.90;;;;;;5095896;28;20199;-48
2024/03/09 11:19:26;;;;;;;18.17;12.77;;;8.60;99.90;;;;;;5087382;28;20201;-50
2024/03/09 11:21:53;;;;;;;17.80;12.33;;;8.80;99.90;;;;;;5051121;28;20226;-50
2024/03/09 11:24:21;;;;;;;18.43;12.57;;;8.80;99.90;;;;;;5077787;28;20279;-48
2024/03/09 11:26:52;;;;;;;17.97;12.30;;;9.00;99.90;;;;;;5076936;28;20271;-46
2024/03/09 11:29:22;;;;;;;20.13;12.63;;;9.00;99.90;;;;;;5082984;28;20202;-47
2024/03/09 11:31:55;;;;;;;17.03;12.33;;;8.90;99.90;;;;;;5074288;28;20858;-48
2024/03/09 11:34:22;;;;;;;17.03;11.07;;;9.00;99.90;;;;;;5093321;28;20192;-48
2024/03/09 11:36:51;;;;;;;19.73;11.37;;;9.20;99.90;;;;;;5036495;28;20303;-47
2024/03/09 11:39:23;;;;;;;15.57;10.63;;;9.10;99.90;;;;;;5075465;28;20201;-47
2024/03/09 11:41:51;;;;;;;15.37;11.03;;;9.10;99.90;;;;;;5077512;28;20313;-47
2024/03/09 11:44:20;;;;;;;14.63;10.73;;;9.10;99.90;;;;;;5087940;28;20198;-47
2024/03/09 11:46:48;;;;;;;14.23;9.70;;;9.20;99.90;;;;;;5065006;28;20937;-50
2024/03/09 11:49:16;;;;;;;10.23;8.73;;;9.20;99.90;;;;;;5090602;28;20194;-46
2024/03/09 11:51:43;;;;;;;14.10;9.67;;;9.10;99.90;;;;;;5051894;28;20220;-46
2024/03/09 11:54:11;;;;;;;14.43;11.00;;;9.00;99.90;;;;;;5063270;28;20567;-48
2024/03/09 11:56:40;;;;;;;14.83;9.03;;;9.00;99.90;;;;;;5085848;28;20624;-48
2024/03/09 11:59:07;;;;;;;13.57;8.67;;;9.10;99.90;;;;;;5094046;28;20209;-48
2024/03/09 12:01:35;;;;;;;12.67;9.50;;;9.20;99.90;;;;;;5069659;28;20229;-50
2024/03/09 12:04:04;;;;;;;17.83;11.53;;;9.30;99.90;;;;;;5097132;28;20202;-48
2024/03/09 12:06:32;;;;;;;13.53;9.27;;;9.40;99.90;;;;;;5086959;28;20213;-48
2024/03/09 12:08:59;;;;;;;11.27;8.80;;;9.40;99.90;;;;;;5045830;28;20202;-48
2024/03/09 12:11:28;;;;;;;12.70;9.17;;;9.40;99.90;;;;;;5077993;28;20222;-49
2024/03/09 12:13:56;;;;;;;13.63;9.23;;;9.50;99.90;;;;;;5082114;28;21009;-49
2024/03/09 12:16:26;;;;;;;13.97;9.60;;;9.50;99.90;;;;;;5085357;28;20202;-47
2024/03/09 12:18:54;;;;;;;13.50;9.17;;;9.70;99.90;;;;;;5092439;28;20204;-49
2024/03/09 12:21:26;;;;;;;15.50;10.60;;;9.80;99.90;;;;;;5084242;28;20218;-50
2024/03/09 12:23:54;;;;;;;14.43;10.43;;;9.80;99.90;;;;;;5050278;28;20206;-48
2024/03/09 12:26:21;;;;;;;12.80;9.27;;;9.80;99.90;;;;;;5076417;28;20723;-48
2024/03/09 12:28:48;;;;;;;12.40;9.90;;;9.80;99.90;;;;;;5079034;28;20198;-48
2024/03/09 12:31:16;;;;;;;13.57;9.70;;;9.60;99.90;;;;;;5083884;28;20279;-48
2024/03/09 12:33:44;;;;;;;14.37;10.57;;;9.50;99.90;;;;;;5076770;28;20202;-47
2024/03/09 12:36:12;;;;;;;16.90;10.77;;;9.40;99.90;;;;;;5088375;28;20649;-47
2024/03/09 12:38:40;;;;;;;15.73;10.93;;;9.40;99.90;;;;;;5054694;28;20206;-47
2024/03/09 12:41:09;;;;;;;13.90;10.50;;;9.40;99.90;;;;;;5070948;28;20229;-49
2024/03/09 12:43:38;;;;;;;14.80;10.27;;;9.40;99.90;;;;;;5079077;28;20207;-52